sensor_id;sensor_type;location;lat;lon;timestamp;pressure;altitude;pressure_sealevel;temperature;humidity
66668;BME280;57205;51.438;-2.006;2022-09-29T00:01:08;99424.28;;;6.62;82.61
66668;BME280;57205;51.438;-2.006;2022-09-29T00:03:35;99421.63;;;6.57;82.94
66668;BME280;57205;51.438;-2.006;2022-09-29T00:06:01;99426.16;;;6.57;82.81
66668;BME280;57205;51.438;-2.006;2022-09-29T00:08:28;99428.53;;;6.58;83.60
66668;BME280;57205;51.438;-2.006;2022-09-29T00:10:55;99411.00;;;6.57;83.93
66668;BME280;57205;51.438;-2.006;2022-09-29T00:13:21;99417.38;;;6.51;83.71
66668;BME280;57205;51.438;-2.006;2022-09-29T00:16:00;99411.81;;;6.48;83.80
66668;BME280;57205;51.438;-2.006;2022-09-29T00:18:28;99409.16;;;6.43;84.11
66668;BME280;57205;51.438;-2.006;2022-09-29T00:21:30;99405.16;;;6.40;84.27
66668;BME280;57205;51.438;-2.006;2022-09-29T00:23:49;99405.94;;;6.36;84.06
66668;BME280;57205;51.438;-2.006;2022-09-29T00:26:18;99400.09;;;6.34;83.32
66668;BME280;57205;51.438;-2.006;2022-09-29T00:28:55;99400.38;;;6.27;82.79
66668;BME280;57205;51.438;-2.006;2022-09-29T00:31:22;99398.78;;;6.26;82.72
66668;BME280;57205;51.438;-2.006;2022-09-29T00:33:48;99393.47;;;6.21;82.26
66668;BME280;57205;51.438;-2.006;2022-09-29T00:36:16;99392.16;;;6.19;82.35
66668;BME280;57205;51.438;-2.006;2022-09-29T00:38:44;99394.50;;;6.15;82.04
66668;BME280;57205;51.438;-2.006;2022-09-29T00:41:31;99392.41;;;6.12;82.02
66668;BME280;57205;51.438;-2.006;2022-09-29T00:44:03;99389.47;;;6.09;82.18
66668;BME280;57205;51.438;-2.006;2022-09-29T00:48:59;99390.56;;;6.13;82.50
66668;BME280;57205;51.438;-2.006;2022-09-29T00:51:26;99387.91;;;6.13;81.92
66668;BME280;57205;51.438;-2.006;2022-09-29T00:53:53;99382.31;;;6.19;81.87
66668;BME280;57205;51.438;-2.006;2022-09-29T00:56:19;99377.00;;;6.24;81.71
66668;BME280;57205;51.438;-2.006;2022-09-29T00:58:51;99377.53;;;6.26;81.77
66668;BME280;57205;51.438;-2.006;2022-09-29T01:01:20;99377.53;;;6.31;81.92
66668;BME280;57205;51.438;-2.006;2022-09-29T01:03:46;99383.13;;;6.35;82.30
66668;BME280;57205;51.438;-2.006;2022-09-29T01:06:19;99387.06;;;6.37;82.31
66668;BME280;57205;51.438;-2.006;2022-09-29T01:11:17;99385.50;;;6.46;82.84
66668;BME280;57205;51.438;-2.006;2022-09-29T01:13:45;99380.97;;;6.52;82.37
66668;BME280;57205;51.438;-2.006;2022-09-29T01:16:10;99376.44;;;6.52;82.47
66668;BME280;57205;51.438;-2.006;2022-09-29T01:18:36;99371.13;;;6.62;82.26
66668;BME280;57205;51.438;-2.006;2022-09-29T01:31:56;99368.97;;;6.79;82.89
66668;BME280;57205;51.438;-2.006;2022-09-29T01:34:39;99362.06;;;6.83;82.99
66668;BME280;57205;51.438;-2.006;2022-09-29T01:37:23;99356.47;;;6.85;82.99
66668;BME280;57205;51.438;-2.006;2022-09-29T01:45:38;99356.41;;;7.00;83.72
66668;BME280;57205;51.438;-2.006;2022-09-29T01:48:18;99354.00;;;7.04;83.53
66668;BME280;57205;51.438;-2.006;2022-09-29T01:50:50;99354.50;;;7.11;83.53
66668;BME280;57205;51.438;-2.006;2022-09-29T01:53:33;99362.19;;;7.17;83.49
66668;BME280;57205;51.438;-2.006;2022-09-29T01:56:04;99358.72;;;7.22;83.42
66668;BME280;57205;51.438;-2.006;2022-09-29T01:58:36;99361.09;;;7.23;83.64
66668;BME280;57205;51.438;-2.006;2022-09-29T02:01:05;99356.03;;;7.27;83.75
66668;BME280;57205;51.438;-2.006;2022-09-29T02:03:39;99354.94;;;7.33;83.75
66668;BME280;57205;51.438;-2.006;2022-09-29T02:06:27;99359.16;;;7.39;84.48
66668;BME280;57205;51.438;-2.006;2022-09-29T02:08:56;99354.09;;;7.42;84.27
66668;BME280;57205;51.438;-2.006;2022-09-29T02:11:23;99346.06;;;7.47;85.33
66668;BME280;57205;51.438;-2.006;2022-09-29T02:16:35;99355.31;;;7.60;86.17
66668;BME280;57205;51.438;-2.006;2022-09-29T02:19:18;99349.75;;;7.61;86.58
66668;BME280;57205;51.438;-2.006;2022-09-29T02:21:45;99348.63;;;7.67;86.69
66668;BME280;57205;51.438;-2.006;2022-09-29T02:24:11;99348.38;;;7.69;87.04
66668;BME280;57205;51.438;-2.006;2022-09-29T02:26:37;99347.25;;;7.75;86.83
66668;BME280;57205;51.438;-2.006;2022-09-29T02:29:03;99337.88;;;7.82;87.16
66668;BME280;57205;51.438;-2.006;2022-09-29T02:31:31;99339.72;;;7.87;87.52
66668;BME280;57205;51.438;-2.006;2022-09-29T02:33:58;99345.03;;;7.87;87.75
66668;BME280;57205;51.438;-2.006;2022-09-29T02:50:49;99334.28;;;8.02;88.58
66668;BME280;57205;51.438;-2.006;2022-09-29T03:00:58;99327.56;;;8.10;88.91
66668;BME280;57205;51.438;-2.006;2022-09-29T03:03:23;99341.13;;;8.13;89.42
66668;BME280;57205;51.438;-2.006;2022-09-29T03:05:50;99337.66;;;8.13;89.25
66668;BME280;57205;51.438;-2.006;2022-09-29T03:08:16;99333.91;;;8.14;88.99
66668;BME280;57205;51.438;-2.006;2022-09-29T03:10:41;99330.16;;;8.15;89.59
66668;BME280;57205;51.438;-2.006;2022-09-29T03:13:06;99332.31;;;8.13;89.59
66668;BME280;57205;51.438;-2.006;2022-09-29T03:15:32;99330.97;;;8.15;89.34
66668;BME280;57205;51.438;-2.006;2022-09-29T03:17:57;99325.94;;;8.14;90.04
66668;BME280;57205;51.438;-2.006;2022-09-29T03:20:23;99329.38;;;8.14;90.32
66668;BME280;57205;51.438;-2.006;2022-09-29T03:22:50;99331.75;;;8.16;90.39
66668;BME280;57205;51.438;-2.006;2022-09-29T03:25:16;99337.06;;;8.16;90.30
66668;BME280;57205;51.438;-2.006;2022-09-29T03:27:41;99332.56;;;8.16;90.33
66668;BME280;57205;51.438;-2.006;2022-09-29T03:30:07;99331.50;;;8.17;90.83
66668;BME280;57205;51.438;-2.006;2022-09-29T03:32:33;99335.97;;;8.22;90.95
66668;BME280;57205;51.438;-2.006;2022-09-29T03:34:58;99330.41;;;8.18;90.75
66668;BME280;57205;51.438;-2.006;2022-09-29T03:37:24;99323.50;;;8.17;91.50
66668;BME280;57205;51.438;-2.006;2022-09-29T03:39:49;99328.81;;;8.17;91.67
66668;BME280;57205;51.438;-2.006;2022-09-29T03:42:15;99326.94;;;8.18;91.43
66668;BME280;57205;51.438;-2.006;2022-09-29T03:44:40;99331.22;;;8.19;91.52
66668;BME280;57205;51.438;-2.006;2022-09-29T03:47:06;99327.22;;;8.16;91.72
66668;BME280;57205;51.438;-2.006;2022-09-29T03:49:31;99324.84;;;8.15;91.64
66668;BME280;57205;51.438;-2.006;2022-09-29T03:51:56;99331.75;;;8.16;91.46
66668;BME280;57205;51.438;-2.006;2022-09-29T03:54:22;99320.59;;;8.14;91.88
66668;BME280;57205;51.438;-2.006;2022-09-29T03:56:50;99326.69;;;8.14;92.10
66668;BME280;57205;51.438;-2.006;2022-09-29T03:59:16;99325.13;;;8.13;91.96
66668;BME280;57205;51.438;-2.006;2022-09-29T04:01:41;99324.31;;;8.13;91.87
66668;BME280;57205;51.438;-2.006;2022-09-29T04:04:08;99328.31;;;8.10;91.89
66668;BME280;57205;51.438;-2.006;2022-09-29T04:06:33;99326.75;;;8.09;92.10
66668;BME280;57205;51.438;-2.006;2022-09-29T04:09:00;99330.75;;;8.07;91.91
66668;BME280;57205;51.438;-2.006;2022-09-29T04:11:26;99334.22;;;8.07;92.20
66668;BME280;57205;51.438;-2.006;2022-09-29T04:13:52;99327.31;;;8.06;92.20
66668;BME280;57205;51.438;-2.006;2022-09-29T04:16:18;99329.69;;;8.08;92.48
66668;BME280;57205;51.438;-2.006;2022-09-29T04:18:43;99338.50;;;8.08;92.40
66668;BME280;57205;51.438;-2.006;2022-09-29T04:21:08;99337.97;;;8.06;92.72
66668;BME280;57205;51.438;-2.006;2022-09-29T04:23:34;99331.28;;;8.09;92.47
66668;BME280;57205;51.438;-2.006;2022-09-29T04:26:00;99341.16;;;8.08;92.06
66668;BME280;57205;51.438;-2.006;2022-09-29T04:28:27;99344.06;;;8.07;91.80
66668;BME280;57205;51.438;-2.006;2022-09-29T04:30:52;99337.47;;;8.04;91.91
66668;BME280;57205;51.438;-2.006;2022-09-29T04:33:18;99349.75;;;8.00;92.15
66668;BME280;57205;51.438;-2.006;2022-09-29T04:35:43;99348.94;;;8.00;92.30
66668;BME280;57205;51.438;-2.006;2022-09-29T04:38:09;99351.31;;;8.01;93.02
66668;BME280;57205;51.438;-2.006;2022-09-29T04:40:35;99349.16;;;8.03;92.60
66668;BME280;57205;51.438;-2.006;2022-09-29T04:43:01;99349.44;;;8.02;92.99
66668;BME280;57205;51.438;-2.006;2022-09-29T04:45:28;99351.31;;;8.01;93.23
66668;BME280;57205;51.438;-2.006;2022-09-29T04:47:53;99355.03;;;8.05;93.03
66668;BME280;57205;51.438;-2.006;2022-09-29T04:50:18;99356.09;;;8.04;93.31
66668;BME280;57205;51.438;-2.006;2022-09-29T04:52:44;99358.47;;;8.06;93.18
66668;BME280;57205;51.438;-2.006;2022-09-29T04:55:10;99370.72;;;8.07;93.37
66668;BME280;57205;51.438;-2.006;2022-09-29T04:57:37;99362.72;;;8.12;93.26
66668;BME280;57205;51.438;-2.006;2022-09-29T05:00:04;99364.56;;;8.11;93.22
66668;BME280;57205;51.438;-2.006;2022-09-29T05:02:32;99367.22;;;8.11;93.09
66668;BME280;57205;51.438;-2.006;2022-09-29T05:04:57;99366.66;;;8.14;93.24
66668;BME280;57205;51.438;-2.006;2022-09-29T05:07:23;99363.97;;;8.19;93.84
66668;BME280;57205;51.438;-2.006;2022-09-29T05:09:48;99372.47;;;8.21;93.78
66668;BME280;57205;51.438;-2.006;2022-09-29T05:12:14;99371.69;;;8.21;93.56
66668;BME280;57205;51.438;-2.006;2022-09-29T05:14:40;99374.06;;;8.22;94.01
66668;BME280;57205;51.438;-2.006;2022-09-29T05:17:06;99378.88;;;8.25;93.91
66668;BME280;57205;51.438;-2.006;2022-09-29T05:19:31;99380.19;;;8.28;94.22
66668;BME280;57205;51.438;-2.006;2022-09-29T05:22:00;99382.03;;;8.27;93.73
66668;BME280;57205;51.438;-2.006;2022-09-29T05:24:26;99384.19;;;8.25;93.97
66668;BME280;57205;51.438;-2.006;2022-09-29T05:26:51;99389.53;;;8.25;94.05
66668;BME280;57205;51.438;-2.006;2022-09-29T05:29:17;99391.13;;;8.26;93.80
66668;BME280;57205;51.438;-2.006;2022-09-29T05:31:42;99393.22;;;8.29;93.91
66668;BME280;57205;51.438;-2.006;2022-09-29T05:34:08;99384.44;;;8.29;94.26
66668;BME280;57205;51.438;-2.006;2022-09-29T05:36:34;99394.53;;;8.32;94.59
66668;BME280;57205;51.438;-2.006;2022-09-29T05:38:59;99391.59;;;8.33;94.65
66668;BME280;57205;51.438;-2.006;2022-09-29T05:41:24;99393.75;;;8.31;94.76
66668;BME280;57205;51.438;-2.006;2022-09-29T05:43:51;99398.03;;;8.32;94.95
66668;BME280;57205;51.438;-2.006;2022-09-29T05:46:18;99404.94;;;8.33;95.00
66668;BME280;57205;51.438;-2.006;2022-09-29T05:48:47;99403.59;;;8.36;95.37
66668;BME280;57205;51.438;-2.006;2022-09-29T05:51:15;99403.28;;;8.37;95.52
66668;BME280;57205;51.438;-2.006;2022-09-29T05:53:41;99405.97;;;8.37;95.68
66668;BME280;57205;51.438;-2.006;2022-09-29T05:56:15;99403.28;;;8.37;95.42
66668;BME280;57205;51.438;-2.006;2022-09-29T05:58:41;99402.72;;;8.40;95.34
66668;BME280;57205;51.438;-2.006;2022-09-29T06:01:13;99400.59;;;8.42;95.61
66668;BME280;57205;51.438;-2.006;2022-09-29T06:03:39;99403.81;;;8.39;95.83
66668;BME280;57205;51.438;-2.006;2022-09-29T06:06:10;99390.72;;;8.43;95.63
66668;BME280;57205;51.438;-2.006;2022-09-29T06:08:36;99400.88;;;8.41;95.32
66668;BME280;57205;51.438;-2.006;2022-09-29T06:11:08;99403.59;;;8.36;95.13
66668;BME280;57205;51.438;-2.006;2022-09-29T06:13:37;99407.59;;;8.33;95.69
66668;BME280;57205;51.438;-2.006;2022-09-29T06:16:03;99413.97;;;8.37;96.02
66668;BME280;57205;51.438;-2.006;2022-09-29T06:18:29;99414.75;;;8.38;96.27
66668;BME280;57205;51.438;-2.006;2022-09-29T06:21:02;99412.59;;;8.40;96.14
66668;BME280;57205;51.438;-2.006;2022-09-29T06:23:28;99418.72;;;8.40;96.21
66668;BME280;57205;51.438;-2.006;2022-09-29T06:25:58;99418.44;;;8.42;96.04
66668;BME280;57205;51.438;-2.006;2022-09-29T06:28:24;99426.41;;;8.47;96.52
66668;BME280;57205;51.438;-2.006;2022-09-29T06:30:49;99423.75;;;8.47;96.07
66668;BME280;57205;51.438;-2.006;2022-09-29T06:33:15;99426.94;;;8.49;95.93
66668;BME280;57205;51.438;-2.006;2022-09-29T06:35:47;99429.84;;;8.52;96.51
66668;BME280;57205;51.438;-2.006;2022-09-29T06:38:31;99432.91;;;8.64;96.75
66668;BME280;57205;51.438;-2.006;2022-09-29T06:40:57;99426.69;;;8.74;96.28
66668;BME280;57205;51.438;-2.006;2022-09-29T06:43:23;99428.13;;;8.90;96.55
66668;BME280;57205;51.438;-2.006;2022-09-29T06:45:49;99433.84;;;9.07;95.30
66668;BME280;57205;51.438;-2.006;2022-09-29T06:48:14;99437.16;;;9.23;94.61
66668;BME280;57205;51.438;-2.006;2022-09-29T06:50:40;99434.41;;;9.28;94.52
66668;BME280;57205;51.438;-2.006;2022-09-29T06:53:05;99438.41;;;9.30;93.66
66668;BME280;57205;51.438;-2.006;2022-09-29T06:55:31;99439.97;;;9.31;92.35
66668;BME280;57205;51.438;-2.006;2022-09-29T06:57:56;99438.72;;;9.24;91.48
66668;BME280;57205;51.438;-2.006;2022-09-29T07:00:21;99444.06;;;9.24;91.54
66668;BME280;57205;51.438;-2.006;2022-09-29T07:02:47;99448.94;;;9.17;91.72
66668;BME280;57205;51.438;-2.006;2022-09-29T07:05:12;99452.72;;;9.16;91.67
66668;BME280;57205;51.438;-2.006;2022-09-29T07:07:38;99453.22;;;9.18;91.95
66668;BME280;57205;51.438;-2.006;2022-09-29T07:10:03;99457.97;;;9.21;91.87
66668;BME280;57205;51.438;-2.006;2022-09-29T07:12:29;99473.41;;;9.24;92.65
66668;BME280;57205;51.438;-2.006;2022-09-29T07:14:55;99471.50;;;9.29;93.05
66668;BME280;57205;51.438;-2.006;2022-09-29T07:17:20;99481.91;;;9.31;93.25
66668;BME280;57205;51.438;-2.006;2022-09-29T07:19:46;99476.81;;;9.34;93.30
66668;BME280;57205;51.438;-2.006;2022-09-29T07:22:11;99478.38;;;9.35;92.87
66668;BME280;57205;51.438;-2.006;2022-09-29T07:24:37;99478.09;;;9.37;93.24
66668;BME280;57205;51.438;-2.006;2022-09-29T07:27:02;99482.88;;;9.40;92.88
66668;BME280;57205;51.438;-2.006;2022-09-29T07:29:28;99483.88;;;9.44;93.47
66668;BME280;57205;51.438;-2.006;2022-09-29T07:31:58;99483.84;;;9.49;93.67
66668;BME280;57205;51.438;-2.006;2022-09-29T07:34:23;99489.84;;;9.59;92.85
66668;BME280;57205;51.438;-2.006;2022-09-29T07:36:49;99498.50;;;9.75;93.55
66668;BME280;57205;51.438;-2.006;2022-09-29T07:39:15;99500.38;;;9.93;92.27
66668;BME280;57205;51.438;-2.006;2022-09-29T07:41:40;99503.69;;;10.09;89.57
66668;BME280;57205;51.438;-2.006;2022-09-29T07:44:06;99499.34;;;10.31;89.84
66668;BME280;57205;51.438;-2.006;2022-09-29T07:46:31;99509.19;;;10.36;88.48
66668;BME280;57205;51.438;-2.006;2022-09-29T07:48:57;99503.94;;;10.49;88.23
66668;BME280;57205;51.438;-2.006;2022-09-29T07:51:22;99508.53;;;10.62;87.80
66668;BME280;57205;51.438;-2.006;2022-09-29T07:53:48;99511.94;;;10.68;87.13
66668;BME280;57205;51.438;-2.006;2022-09-29T07:56:18;99516.09;;;10.74;86.99
66668;BME280;57205;51.438;-2.006;2022-09-29T07:58:45;99524.25;;;10.82;86.68
66668;BME280;57205;51.438;-2.006;2022-09-29T08:01:12;99523.66;;;10.86;85.77
66668;BME280;57205;51.438;-2.006;2022-09-29T08:03:41;99522.81;;;10.90;85.71
66668;BME280;57205;51.438;-2.006;2022-09-29T08:06:07;99533.63;;;10.99;85.73
66668;BME280;57205;51.438;-2.006;2022-09-29T08:08:37;99531.97;;;11.03;85.33
66668;BME280;57205;51.438;-2.006;2022-09-29T08:11:06;99525.44;;;11.09;85.23
66668;BME280;57205;51.438;-2.006;2022-09-29T08:13:32;99535.44;;;11.17;85.62
66668;BME280;57205;51.438;-2.006;2022-09-29T08:16:01;99534.28;;;11.23;85.10
66668;BME280;57205;51.438;-2.006;2022-09-29T08:18:28;99541.44;;;11.27;84.59
66668;BME280;57205;51.438;-2.006;2022-09-29T08:20:53;99540.75;;;11.35;83.84
66668;BME280;57205;51.438;-2.006;2022-09-29T08:23:20;99547.31;;;11.43;83.65
66668;BME280;57205;51.438;-2.006;2022-09-29T08:25:47;99548.22;;;11.38;83.59
66668;BME280;57205;51.438;-2.006;2022-09-29T08:28:12;99556.25;;;11.38;83.12
66668;BME280;57205;51.438;-2.006;2022-09-29T08:30:38;99555.94;;;11.40;83.90
66668;BME280;57205;51.438;-2.006;2022-09-29T08:33:03;99556.94;;;11.44;83.66
66668;BME280;57205;51.438;-2.006;2022-09-29T08:35:31;99561.09;;;11.36;81.92
66668;BME280;57205;51.438;-2.006;2022-09-29T08:37:57;99559.72;;;11.39;81.84
66668;BME280;57205;51.438;-2.006;2022-09-29T08:40:27;99574.09;;;11.43;82.55
66668;BME280;57205;51.438;-2.006;2022-09-29T08:45:34;99572.13;;;11.48;83.90
66668;BME280;57205;51.438;-2.006;2022-09-29T08:48:14;99576.31;;;11.54;83.45
66668;BME280;57205;51.438;-2.006;2022-09-29T08:51:01;99579.13;;;11.63;82.61
66668;BME280;57205;51.438;-2.006;2022-09-29T08:53:30;99582.81;;;11.81;82.37
66668;BME280;57205;51.438;-2.006;2022-09-29T08:56:03;99584.00;;;11.88;81.02
66668;BME280;57205;51.438;-2.006;2022-09-29T08:58:30;99582.03;;;12.07;80.75
66668;BME280;57205;51.438;-2.006;2022-09-29T09:12:00;99601.38;;;12.18;79.55
66668;BME280;57205;51.438;-2.006;2022-09-29T09:19:55;99614.38;;;11.84;83.78
66668;BME280;57205;51.438;-2.006;2022-09-29T09:25:26;99633.47;;;11.63;84.63
66668;BME280;57205;51.438;-2.006;2022-09-29T09:28:03;99633.28;;;11.60;85.01
66668;BME280;57205;51.438;-2.006;2022-09-29T09:30:36;99646.38;;;11.61;85.87
66668;BME280;57205;51.438;-2.006;2022-09-29T09:33:05;99643.50;;;11.58;85.75
66668;BME280;57205;51.438;-2.006;2022-09-29T09:35:44;99654.19;;;11.58;86.02
66668;BME280;57205;51.438;-2.006;2022-09-29T09:38:20;99657.97;;;11.57;86.46
66668;BME280;57205;51.438;-2.006;2022-09-29T09:40:52;99656.59;;;11.59;86.43
66668;BME280;57205;51.438;-2.006;2022-09-29T09:43:38;99651.47;;;11.63;86.13
66668;BME280;57205;51.438;-2.006;2022-09-29T09:46:31;99659.34;;;11.73;85.60
66668;BME280;57205;51.438;-2.006;2022-09-29T09:54:51;99658.91;;;12.39;82.62
66668;BME280;57205;51.438;-2.006;2022-09-29T10:00:09;99666.00;;;13.20;78.38
66668;BME280;57205;51.438;-2.006;2022-09-29T10:02:42;99676.09;;;13.36;77.69
66668;BME280;57205;51.438;-2.006;2022-09-29T10:05:22;99674.34;;;13.54;75.95
66668;BME280;57205;51.438;-2.006;2022-09-29T10:07:52;99674.94;;;13.51;75.36
66668;BME280;57205;51.438;-2.006;2022-09-29T10:10:20;99673.00;;;13.43;76.64
66668;BME280;57205;51.438;-2.006;2022-09-29T10:12:56;99669.19;;;13.44;74.61
66668;BME280;57205;51.438;-2.006;2022-09-29T10:15:27;99684.59;;;13.52;75.12
66668;BME280;57205;51.438;-2.006;2022-09-29T10:18:02;99680.06;;;13.61;74.55
66668;BME280;57205;51.438;-2.006;2022-09-29T10:20:35;99682.75;;;13.61;74.76
66668;BME280;57205;51.438;-2.006;2022-09-29T10:26:00;99689.53;;;13.58;75.52
66668;BME280;57205;51.438;-2.006;2022-09-29T10:28:28;99695.41;;;13.60;75.46
66668;BME280;57205;51.438;-2.006;2022-09-29T10:31:01;99698.41;;;13.59;74.46
66668;BME280;57205;51.438;-2.006;2022-09-29T10:33:27;99699.88;;;13.65;75.01
66668;BME280;57205;51.438;-2.006;2022-09-29T10:36:05;99702.28;;;13.75;74.71
66668;BME280;57205;51.438;-2.006;2022-09-29T10:38:31;99709.69;;;13.69;73.84
66668;BME280;57205;51.438;-2.006;2022-09-29T10:41:05;99713.44;;;13.60;76.09
66668;BME280;57205;51.438;-2.006;2022-09-29T10:43:38;99713.72;;;13.58;75.86
66668;BME280;57205;51.438;-2.006;2022-09-29T10:46:29;99711.84;;;13.59;76.35
66668;BME280;57205;51.438;-2.006;2022-09-29T10:49:23;99712.88;;;13.71;76.43
66668;BME280;57205;51.438;-2.006;2022-09-29T10:52:04;99722.16;;;13.88;75.34
66668;BME280;57205;51.438;-2.006;2022-09-29T10:54:33;99721.41;;;13.96;73.62
66668;BME280;57205;51.438;-2.006;2022-09-29T10:57:09;99729.09;;;14.11;73.75
66668;BME280;57205;51.438;-2.006;2022-09-29T10:59:47;99738.94;;;14.15;72.57
66668;BME280;57205;51.438;-2.006;2022-09-29T11:04:55;99741.13;;;14.13;73.58
66668;BME280;57205;51.438;-2.006;2022-09-29T11:07:22;99741.47;;;14.20;72.63
66668;BME280;57205;51.438;-2.006;2022-09-29T11:09:48;99738.31;;;14.18;71.85
66668;BME280;57205;51.438;-2.006;2022-09-29T11:14:49;99742.16;;;14.56;70.62
66668;BME280;57205;51.438;-2.006;2022-09-29T11:17:24;99747.78;;;14.86;70.46
66668;BME280;57205;51.438;-2.006;2022-09-29T11:19:51;99756.56;;;15.17;69.33
66668;BME280;57205;51.438;-2.006;2022-09-29T11:22:41;99750.88;;;15.35;67.67
66668;BME280;57205;51.438;-2.006;2022-09-29T11:31:04;99761.47;;;15.15;67.80
66668;BME280;57205;51.438;-2.006;2022-09-29T11:36:37;99767.13;;;14.88;68.90
66668;BME280;57205;51.438;-2.006;2022-09-29T11:44:35;99781.91;;;14.59;70.05
66668;BME280;57205;51.438;-2.006;2022-09-29T11:47:24;99791.72;;;14.55;68.76
66668;BME280;57205;51.438;-2.006;2022-09-29T11:50:08;99790.38;;;14.44;69.13
66668;BME280;57205;51.438;-2.006;2022-09-29T11:53:03;99793.06;;;14.36;69.50
66668;BME280;57205;51.438;-2.006;2022-09-29T11:55:56;99793.22;;;14.39;69.80
66668;BME280;57205;51.438;-2.006;2022-09-29T11:58:44;99794.13;;;14.35;70.38
66668;BME280;57205;51.438;-2.006;2022-09-29T12:07:32;99809.47;;;14.34;69.97
66668;BME280;57205;51.438;-2.006;2022-09-29T12:10:26;99814.41;;;14.32;69.07
66668;BME280;57205;51.438;-2.006;2022-09-29T12:13:05;99820.44;;;14.38;69.05
66668;BME280;57205;51.438;-2.006;2022-09-29T12:15:51;99815.28;;;14.50;68.47
66668;BME280;57205;51.438;-2.006;2022-09-29T12:18:20;99813.41;;;14.59;67.79
66668;BME280;57205;51.438;-2.006;2022-09-29T12:20:49;99812.19;;;14.65;68.02
66668;BME280;57205;51.438;-2.006;2022-09-29T12:23:21;99814.91;;;14.74;66.79
66668;BME280;57205;51.438;-2.006;2022-09-29T12:26:10;99817.41;;;15.01;65.53
66668;BME280;57205;51.438;-2.006;2022-09-29T12:33:47;99829.41;;;15.42;64.07
66668;BME280;57205;51.438;-2.006;2022-09-29T12:36:50;99825.13;;;15.50;63.66
66668;BME280;57205;51.438;-2.006;2022-09-29T12:39:48;99825.78;;;15.47;64.13
66668;BME280;57205;51.438;-2.006;2022-09-29T12:45:25;99823.50;;;15.32;64.50
66668;BME280;57205;51.438;-2.006;2022-09-29T12:48:04;99824.44;;;15.27;63.44
66668;BME280;57205;51.438;-2.006;2022-09-29T12:50:38;99819.19;;;15.14;63.03
66668;BME280;57205;51.438;-2.006;2022-09-29T12:53:52;99832.59;;;14.97;63.72
66668;BME280;57205;51.438;-2.006;2022-09-29T12:56:00;99831.13;;;14.91;65.05
66668;BME280;57205;51.438;-2.006;2022-09-29T12:58:36;99825.16;;;14.94;65.43
66668;BME280;57205;51.438;-2.006;2022-09-29T13:01:23;99836.88;;;14.98;65.63
66668;BME280;57205;51.438;-2.006;2022-09-29T13:04:26;99836.91;;;15.06;64.96
66668;BME280;57205;51.438;-2.006;2022-09-29T13:07:12;99843.84;;;14.99;64.46
66668;BME280;57205;51.438;-2.006;2022-09-29T13:15:33;99840.88;;;15.09;63.53
66668;BME280;57205;51.438;-2.006;2022-09-29T13:29:52;99862.41;;;15.00;64.15
66668;BME280;57205;51.438;-2.006;2022-09-29T13:32:20;99863.53;;;14.99;63.87
66668;BME280;57205;51.438;-2.006;2022-09-29T13:34:53;99863.63;;;14.94;63.63
66668;BME280;57205;51.438;-2.006;2022-09-29T13:37:21;99865.06;;;14.92;64.13
66668;BME280;57205;51.438;-2.006;2022-09-29T13:40:05;99883.44;;;14.90;64.43
66668;BME280;57205;51.438;-2.006;2022-09-29T13:42:43;99884.03;;;14.87;64.66
66668;BME280;57205;51.438;-2.006;2022-09-29T13:47:51;99893.00;;;14.74;66.10
66668;BME280;57205;51.438;-2.006;2022-09-29T13:58:29;99894.81;;;14.56;65.37
66668;BME280;57205;51.438;-2.006;2022-09-29T14:00:58;99894.16;;;14.50;65.98
66668;BME280;57205;51.438;-2.006;2022-09-29T14:06:17;99904.91;;;14.50;66.03
66668;BME280;57205;51.438;-2.006;2022-09-29T14:09:12;99897.94;;;14.49;65.94
66668;BME280;57205;51.438;-2.006;2022-09-29T14:11:42;99897.66;;;14.51;65.97
66668;BME280;57205;51.438;-2.006;2022-09-29T14:14:24;99906.50;;;14.51;66.41
66668;BME280;57205;51.438;-2.006;2022-09-29T14:19:44;99903.06;;;14.59;66.43
66668;BME280;57205;51.438;-2.006;2022-09-29T14:28:08;99885.91;;;14.78;66.21
66668;BME280;57205;51.438;-2.006;2022-09-29T14:35:37;99892.66;;;14.97;64.53
66668;BME280;57205;51.438;-2.006;2022-09-29T14:38:14;99895.66;;;14.96;63.41
66668;BME280;57205;51.438;-2.006;2022-09-29T14:43:44;99894.22;;;14.90;63.25
66668;BME280;57205;51.438;-2.006;2022-09-29T14:53:13;99905.50;;;15.00;64.67
66668;BME280;57205;51.438;-2.006;2022-09-29T14:56:05;99908.06;;;15.05;64.76
66668;BME280;57205;51.438;-2.006;2022-09-29T15:01:30;99915.31;;;14.96;63.93
66668;BME280;57205;51.438;-2.006;2022-09-29T15:03:57;99923.84;;;14.90;64.32
66668;BME280;57205;51.438;-2.006;2022-09-29T15:06:29;99926.19;;;14.83;64.56
66668;BME280;57205;51.438;-2.006;2022-09-29T15:08:59;99924.56;;;14.73;64.57
66668;BME280;57205;51.438;-2.006;2022-09-29T15:11:28;99920.53;;;14.62;65.52
66668;BME280;57205;51.438;-2.006;2022-09-29T15:13:54;99925.53;;;14.55;65.71
66668;BME280;57205;51.438;-2.006;2022-09-29T15:16:26;99926.59;;;14.45;66.40
66668;BME280;57205;51.438;-2.006;2022-09-29T15:21:54;99930.00;;;14.37;67.06
66668;BME280;57205;51.438;-2.006;2022-09-29T15:24:28;99935.38;;;14.37;67.80
66668;BME280;57205;51.438;-2.006;2022-09-29T15:27:01;99944.53;;;14.36;67.85
66668;BME280;57205;51.438;-2.006;2022-09-29T15:29:27;99947.38;;;14.31;68.35
66668;BME280;57205;51.438;-2.006;2022-09-29T15:31:53;99954.13;;;14.29;68.62
66668;BME280;57205;51.438;-2.006;2022-09-29T15:34:21;99950.97;;;14.27;68.54
66668;BME280;57205;51.438;-2.006;2022-09-29T15:36:51;99962.81;;;14.26;68.60
66668;BME280;57205;51.438;-2.006;2022-09-29T15:42:21;99969.94;;;14.08;69.42
66668;BME280;57205;51.438;-2.006;2022-09-29T15:44:59;99964.97;;;14.02;69.93
66668;BME280;57205;51.438;-2.006;2022-09-29T15:47:34;99965.06;;;13.97;70.08
66668;BME280;57205;51.438;-2.006;2022-09-29T15:52:41;99966.59;;;13.89;69.90
66668;BME280;57205;51.438;-2.006;2022-09-29T15:55:11;99970.84;;;13.90;69.78
66668;BME280;57205;51.438;-2.006;2022-09-29T15:57:43;99972.16;;;13.93;70.06
66668;BME280;57205;51.438;-2.006;2022-09-29T16:03:11;99987.38;;;13.97;69.22
66668;BME280;57205;51.438;-2.006;2022-09-29T16:05:41;99978.22;;;13.98;69.12
66668;BME280;57205;51.438;-2.006;2022-09-29T16:08:18;99982.78;;;13.98;68.88
66668;BME280;57205;51.438;-2.006;2022-09-29T16:10:48;99995.75;;;13.96;68.95
66668;BME280;57205;51.438;-2.006;2022-09-29T16:13:22;99995.75;;;13.96;68.66
66668;BME280;57205;51.438;-2.006;2022-09-29T16:15:53;99993.88;;;13.96;68.45